YVR weather

Vancouver International Airport
Vancouver, British Columbia, Canada

Public forecast

Using degrees Celsius for public forecast. Weather courtesy of forecast.io.

Current aviation weather report (METAR) for Vancouver International Airport

Retrieved 2019/10/17 05:41 UTC (0 seconds ago):

CYVR 170541Z 13005KT 15SM SCT085 09/08 A2960 RMK AC3 SLP026

Aviation forecast (TAF) for Vancouver International Airport

Retrieved 2019-10-17 03:42 UTC (1 hour ago):

TAF CYVR 170238Z 1703/1806 12006KT P6SM -RA FEW012 BKN030 OVC060 TEMPO 1703/1705 5SM -RA BR BKN012 OVC030 FM170500 14012KT P6SM SCT012 BKN030 TEMPO 1705/1710 SCT006 OVC012 FM171000 12010KT 6SM -SHRA BR SCT006 BKN012 OVC030 FM171800 16015KT P6SM -SHRA SCT020 OVC040 FM172100 17015KT P6SM SCT040 BKN080 RMK NXT FCST BY 170600Z